HZKAE OERK-OEMA
Flight info
| Callsign | HZKAE |
|---|---|
| Flight time | 1h 23m |
| Altitude | 38000 |
| Route | IVONU Y216 ITSEP |
| Aircraft | CL60/M-SBDE1E2E3FGHIJ1J4J5J7M3RWXYZ/LB1V1D1 |
Departure
| Time | 2026-04-21 17:56 |
|---|---|
| Airport | King Khalid International Airport (OERK) |
Arrival
| Time | 2026-04-21 19:19 |
|---|---|
| Airport | Prince Mohammad Bin Abdulaziz Airport (OEMA) |
| Time | Latitude | Longitude | Altitude | Speed | Heading |
|---|---|---|---|---|---|
| 2026-04-21 17:08 | 24.96365 | 46.72185 | 2049 ft | 0 kts | 240° |
| 2026-04-21 17:43 | 24.96370 | 46.72195 | 2049 ft | 2 kts | 240° |
| 2026-04-21 17:43 | 24.96378 | 46.72210 | 2049 ft | 2 kts | 240° |
| 2026-04-21 17:44 | 24.96385 | 46.72224 | 2049 ft | 2 kts | 240° |
| 2026-04-21 17:44 | 24.96389 | 46.72239 | 2049 ft | 2 kts | 282° |
| 2026-04-21 17:44 | 24.96380 | 46.72252 | 2049 ft | 2 kts | 332° |
| 2026-04-21 17:44 | 24.96367 | 46.72260 | 2049 ft | 2 kts | 329° |
| 2026-04-21 17:45 | 24.96355 | 46.72268 | 2049 ft | 0 kts | 329° |
| 2026-04-21 17:49 | 24.96375 | 46.72255 | 2049 ft | 7 kts | 331° |
| 2026-04-21 17:50 | 24.96440 | 46.72214 | 2049 ft | 12 kts | 329° |
| 2026-04-21 17:50 | 24.96511 | 46.72169 | 2049 ft | 10 kts | 331° |
| 2026-04-21 17:50 | 24.96561 | 46.72107 | 2049 ft | 11 kts | 264° |
| 2026-04-21 17:50 | 24.96518 | 46.72020 | 2049 ft | 14 kts | 240° |
| 2026-04-21 17:51 | 24.96460 | 46.71910 | 2049 ft | 18 kts | 240° |
| 2026-04-21 17:51 | 24.96418 | 46.71826 | 2049 ft | 9 kts | 259° |
| 2026-04-21 17:51 | 24.96464 | 46.71763 | 2049 ft | 12 kts | 330° |
| 2026-04-21 17:51 | 24.96555 | 46.71707 | 2049 ft | 16 kts | 330° |
| 2026-04-21 17:52 | 24.96662 | 46.71638 | 2049 ft | 19 kts | 330° |
| 2026-04-21 17:52 | 24.96789 | 46.71559 | 2049 ft | 21 kts | 329° |
| 2026-04-21 17:52 | 24.96926 | 46.71472 | 2049 ft | 23 kts | 330° |
| 2026-04-21 17:52 | 24.97073 | 46.71379 | 2049 ft | 25 kts | 329° |
| 2026-04-21 17:53 | 24.97228 | 46.71282 | 2049 ft | 26 kts | 328° |
| 2026-04-21 17:53 | 24.97361 | 46.71197 | 2049 ft | 16 kts | 331° |
| 2026-04-21 17:53 | 24.97425 | 46.71143 | 2049 ft | 7 kts | 301° |
| 2026-04-21 17:53 | 24.97415 | 46.71077 | 2049 ft | 11 kts | 238° |
| 2026-04-21 17:54 | 24.97361 | 46.70975 | 2049 ft | 18 kts | 240° |
| 2026-04-21 17:54 | 24.97295 | 46.70847 | 2049 ft | 20 kts | 239° |
| 2026-04-21 17:54 | 24.97230 | 46.70725 | 2049 ft | 14 kts | 239° |
| 2026-04-21 17:54 | 24.97210 | 46.70687 | 2049 ft | 0 kts | 240° |
| 2026-04-21 17:55 | 24.97186 | 46.70643 | 2049 ft | 12 kts | 239° |
| 2026-04-21 17:55 | 24.97154 | 46.70582 | 2049 ft | 7 kts | 240° |
| 2026-04-21 17:55 | 24.97111 | 46.70563 | 2049 ft | 5 kts | 152° |
| 2026-04-21 17:55 | 24.97044 | 46.70607 | 2049 ft | 31 kts | 149° |
| 2026-04-21 17:56 | 24.96545 | 46.70924 | 2049 ft | 130 kts | 149° |
| 2026-04-21 17:56 | 24.95573 | 46.71507 | 2407 ft | 177 kts | 147° |
| 2026-04-21 17:56 | 24.94424 | 46.72173 | 3250 ft | 198 kts | 144° |
| 2026-04-21 17:56 | 24.93143 | 46.73044 | 3968 ft | 232 kts | 139° |
| 2026-04-21 17:57 | 24.91806 | 46.74213 | 4913 ft | 245 kts | 138° |
| 2026-04-21 17:57 | 24.90517 | 46.75391 | 5820 ft | 244 kts | 140° |
| 2026-04-21 17:57 | 24.89247 | 46.76648 | 6687 ft | 245 kts | 142° |
| 2026-04-21 17:57 | 24.87947 | 46.77854 | 7445 ft | 249 kts | 142° |
| 2026-04-21 17:58 | 24.86528 | 46.79035 | 7867 ft | 254 kts | 150° |
| 2026-04-21 17:58 | 24.84973 | 46.79988 | 8007 ft | 253 kts | 155° |
| 2026-04-21 17:58 | 24.83383 | 46.80893 | 8030 ft | 262 kts | 155° |
| 2026-04-21 17:58 | 24.81728 | 46.81836 | 8025 ft | 270 kts | 155° |
| 2026-04-21 17:59 | 24.80045 | 46.82798 | 8024 ft | 271 kts | 155° |
| 2026-04-21 17:59 | 24.78274 | 46.83541 | 8039 ft | 270 kts | 167° |
| 2026-04-21 17:59 | 24.76439 | 46.84041 | 8039 ft | 270 kts | 168° |
| 2026-04-21 17:59 | 24.74590 | 46.84548 | 8089 ft | 279 kts | 168° |
| 2026-04-21 18:00 | 24.72631 | 46.85086 | 8972 ft | 293 kts | 168° |
| 2026-04-21 18:00 | 24.70700 | 46.85620 | 10356 ft | 289 kts | 169° |
| 2026-04-21 18:00 | 24.68756 | 46.86156 | 11508 ft | 293 kts | 171° |
| 2026-04-21 18:00 | 24.66775 | 46.86661 | 12549 ft | 296 kts | 178° |
| 2026-04-21 18:01 | 24.64761 | 46.86575 | 13645 ft | 289 kts | 199° |
| 2026-04-21 18:01 | 24.62965 | 46.85683 | 14640 ft | 286 kts | 220° |
| 2026-04-21 18:01 | 24.61621 | 46.84093 | 15630 ft | 286 kts | 240° |
| 2026-04-21 18:01 | 24.60653 | 46.82185 | 16625 ft | 289 kts | 244° |
| 2026-04-21 18:02 | 24.59698 | 46.80256 | 17540 ft | 294 kts | 244° |
| 2026-04-21 18:02 | 24.58708 | 46.78269 | 18436 ft | 298 kts | 244° |
| 2026-04-21 18:02 | 24.57714 | 46.76276 | 19286 ft | 303 kts | 245° |
| 2026-04-21 18:02 | 24.56710 | 46.74263 | 20132 ft | 303 kts | 244° |
| 2026-04-21 18:03 | 24.55696 | 46.72234 | 20856 ft | 306 kts | 245° |
| 2026-04-21 18:03 | 24.54663 | 46.70166 | 21509 ft | 310 kts | 245° |
| 2026-04-21 18:03 | 24.53666 | 46.68064 | 22109 ft | 313 kts | 252° |
| 2026-04-21 18:03 | 24.53216 | 46.65732 | 22743 ft | 312 kts | 270° |
| 2026-04-21 18:04 | 24.53561 | 46.63320 | 22837 ft | 333 kts | 290° |
| 2026-04-21 18:04 | 24.54712 | 46.61009 | 22832 ft | 357 kts | 298° |
| 2026-04-21 18:04 | 24.56039 | 46.58614 | 22840 ft | 376 kts | 298° |
| 2026-04-21 18:04 | 24.57418 | 46.56106 | 22889 ft | 392 kts | 298° |
| 2026-04-21 18:05 | 24.58846 | 46.53509 | 23145 ft | 401 kts | 298° |
| 2026-04-21 18:05 | 24.60303 | 46.50861 | 23558 ft | 406 kts | 298° |
| 2026-04-21 18:05 | 24.61765 | 46.48201 | 24171 ft | 405 kts | 298° |
| 2026-04-21 18:05 | 24.63209 | 46.45574 | 24823 ft | 403 kts | 297° |
| 2026-04-21 18:06 | 24.64660 | 46.42932 | 25529 ft | 399 kts | 297° |
| 2026-04-21 18:06 | 24.66073 | 46.40360 | 26258 ft | 394 kts | 297° |
| 2026-04-21 18:06 | 24.67497 | 46.37763 | 26922 ft | 391 kts | 297° |
| 2026-04-21 18:06 | 24.68883 | 46.35231 | 27547 ft | 389 kts | 296° |
| 2026-04-21 18:07 | 24.70292 | 46.32655 | 28127 ft | 389 kts | 296° |
| 2026-04-21 18:07 | 24.71674 | 46.30128 | 28735 ft | 387 kts | 296° |
| 2026-04-21 18:07 | 24.73056 | 46.27599 | 29327 ft | 385 kts | 296° |
| 2026-04-21 18:07 | 24.74441 | 46.25063 | 30001 ft | 381 kts | 295° |
| 2026-04-21 18:08 | 24.75800 | 46.22573 | 30606 ft | 378 kts | 295° |
| 2026-04-21 18:08 | 24.77146 | 46.20106 | 31262 ft | 374 kts | 296° |
| 2026-04-21 18:08 | 24.78478 | 46.17664 | 31921 ft | 369 kts | 295° |
| 2026-04-21 18:08 | 24.79790 | 46.15256 | 32500 ft | 366 kts | 295° |
| 2026-04-21 18:09 | 24.81097 | 46.12856 | 33069 ft | 363 kts | 295° |
| 2026-04-21 18:09 | 24.82397 | 46.10467 | 33609 ft | 361 kts | 295° |
| 2026-04-21 18:09 | 24.83686 | 46.08095 | 34186 ft | 358 kts | 295° |
| 2026-04-21 18:09 | 24.84958 | 46.05756 | 34707 ft | 355 kts | 295° |
| 2026-04-21 18:10 | 24.86218 | 46.03438 | 35286 ft | 351 kts | 295° |
| 2026-04-21 18:10 | 24.87462 | 46.01147 | 35740 ft | 349 kts | 295° |
| 2026-04-21 18:10 | 24.88697 | 45.98870 | 36228 ft | 346 kts | 295° |
| 2026-04-21 18:10 | 24.89938 | 45.96583 | 36803 ft | 341 kts | 295° |
| 2026-04-21 18:11 | 24.91149 | 45.94350 | 37282 ft | 337 kts | 295° |
| 2026-04-21 18:11 | 24.92342 | 45.92148 | 37601 ft | 337 kts | 294° |
| 2026-04-21 18:11 | 24.93547 | 45.89921 | 37882 ft | 337 kts | 295° |
| 2026-04-21 18:11 | 24.94752 | 45.87690 | 37988 ft | 340 kts | 294° |
| 2026-04-21 18:12 | 24.97216 | 45.83127 | 37990 ft | 351 kts | 295° |
| 2026-04-21 18:12 | 24.99751 | 45.78428 | 37985 ft | 363 kts | 295° |
| 2026-04-21 18:13 | 25.02373 | 45.73565 | 37988 ft | 373 kts | 295° |
| 2026-04-21 18:13 | 25.04598 | 45.68356 | 37981 ft | 374 kts | 283° |
| 2026-04-21 18:14 | 25.05278 | 45.62685 | 37975 ft | 375 kts | 269° |
| 2026-04-21 18:14 | 25.05110 | 45.59831 | 37974 ft | 376 kts | 267° |
| 2026-04-21 18:15 | 25.04704 | 45.54060 | 37981 ft | 376 kts | 267° |
| 2026-04-21 18:15 | 25.04302 | 45.48334 | 37979 ft | 375 kts | 266° |
| 2026-04-21 18:16 | 25.03895 | 45.42589 | 37985 ft | 376 kts | 267° |
| 2026-04-21 18:16 | 25.03483 | 45.36802 | 37974 ft | 376 kts | 266° |
| 2026-04-21 18:17 | 25.03071 | 45.31054 | 37975 ft | 377 kts | 266° |
| 2026-04-21 18:17 | 25.02653 | 45.25259 | 37968 ft | 377 kts | 266° |
| 2026-04-21 18:18 | 25.02234 | 45.19492 | 37981 ft | 377 kts | 266° |
| 2026-04-21 18:18 | 25.01813 | 45.13728 | 37978 ft | 377 kts | 266° |
| 2026-04-21 18:19 | 25.01389 | 45.07944 | 37980 ft | 379 kts | 267° |
| 2026-04-21 18:19 | 25.00958 | 45.02108 | 37981 ft | 385 kts | 266° |
| 2026-04-21 18:20 | 25.00518 | 44.96168 | 37974 ft | 389 kts | 267° |
| 2026-04-21 18:20 | 25.00073 | 44.90199 | 37972 ft | 390 kts | 266° |
| 2026-04-21 18:21 | 24.99626 | 44.84251 | 37970 ft | 389 kts | 267° |
| 2026-04-21 18:21 | 24.99179 | 44.78326 | 37969 ft | 388 kts | 266° |
| 2026-04-21 18:22 | 24.98730 | 44.72402 | 37969 ft | 388 kts | 267° |
| 2026-04-21 18:22 | 24.98278 | 44.66472 | 37966 ft | 387 kts | 267° |
| 2026-04-21 18:23 | 24.97826 | 44.60560 | 37974 ft | 387 kts | 267° |
| 2026-04-21 18:23 | 24.97373 | 44.54651 | 37968 ft | 386 kts | 266° |
| 2026-04-21 18:24 | 24.96919 | 44.48782 | 37966 ft | 385 kts | 266° |
| 2026-04-21 18:24 | 24.96629 | 44.42892 | 37960 ft | 385 kts | 269° |
| 2026-04-21 18:25 | 24.96440 | 44.36986 | 37959 ft | 384 kts | 269° |
| 2026-04-21 18:25 | 24.96246 | 44.31077 | 37959 ft | 384 kts | 269° |
| 2026-04-21 18:26 | 24.96051 | 44.25208 | 37957 ft | 384 kts | 268° |
| 2026-04-21 18:26 | 24.95852 | 44.19311 | 37956 ft | 384 kts | 269° |
| 2026-04-21 18:27 | 24.95651 | 44.13458 | 37956 ft | 383 kts | 268° |
| 2026-04-21 18:27 | 24.95448 | 44.07597 | 37957 ft | 382 kts | 268° |
| 2026-04-21 18:28 | 24.95242 | 44.01740 | 37970 ft | 381 kts | 269° |
| 2026-04-21 18:28 | 24.95037 | 43.95901 | 37981 ft | 381 kts | 269° |
| 2026-04-21 18:29 | 24.94828 | 43.90023 | 37981 ft | 381 kts | 269° |
| 2026-04-21 18:29 | 24.94618 | 43.84201 | 37985 ft | 381 kts | 269° |
| 2026-04-21 18:30 | 24.94404 | 43.78334 | 37987 ft | 381 kts | 269° |
| 2026-04-21 18:30 | 24.94190 | 43.72520 | 37989 ft | 381 kts | 269° |
| 2026-04-21 18:31 | 24.93971 | 43.66639 | 37992 ft | 381 kts | 269° |
| 2026-04-21 18:31 | 24.93752 | 43.60806 | 37997 ft | 381 kts | 269° |
| 2026-04-21 18:32 | 24.93529 | 43.54945 | 37998 ft | 381 kts | 269° |
| 2026-04-21 18:32 | 24.93306 | 43.49141 | 38003 ft | 382 kts | 269° |
| 2026-04-21 18:33 | 24.93079 | 43.43276 | 38002 ft | 382 kts | 268° |
| 2026-04-21 18:33 | 24.92849 | 43.37410 | 37999 ft | 382 kts | 269° |
| 2026-04-21 18:34 | 24.92617 | 43.31549 | 38000 ft | 383 kts | 269° |
| 2026-04-21 18:34 | 24.92382 | 43.25682 | 37998 ft | 383 kts | 268° |
| 2026-04-21 18:35 | 24.92146 | 43.19830 | 37998 ft | 383 kts | 268° |
| 2026-04-21 18:35 | 24.91908 | 43.13990 | 37997 ft | 383 kts | 268° |
| 2026-04-21 18:36 | 24.91665 | 43.08098 | 37996 ft | 383 kts | 268° |
| 2026-04-21 18:36 | 24.91420 | 43.02211 | 37994 ft | 383 kts | 269° |
| 2026-04-21 18:37 | 24.91174 | 42.96336 | 37996 ft | 383 kts | 269° |
| 2026-04-21 18:37 | 24.90924 | 42.90444 | 37995 ft | 383 kts | 269° |
| 2026-04-21 18:38 | 24.90674 | 42.84590 | 37998 ft | 383 kts | 268° |
| 2026-04-21 18:38 | 24.90421 | 42.78726 | 37995 ft | 383 kts | 268° |
| 2026-04-21 18:39 | 24.90165 | 42.72860 | 37994 ft | 383 kts | 269° |
| 2026-04-21 18:39 | 24.89908 | 42.67013 | 37994 ft | 382 kts | 269° |
| 2026-04-21 18:40 | 24.89649 | 42.61174 | 37996 ft | 382 kts | 269° |
| 2026-04-21 18:40 | 24.89388 | 42.55328 | 37991 ft | 382 kts | 269° |
| 2026-04-21 18:41 | 24.89124 | 42.49498 | 37993 ft | 382 kts | 268° |
| 2026-04-21 18:41 | 24.88858 | 42.43654 | 37990 ft | 381 kts | 268° |
| 2026-04-21 18:42 | 24.88590 | 42.37830 | 37989 ft | 382 kts | 268° |
| 2026-04-21 18:42 | 24.88013 | 42.31989 | 37989 ft | 383 kts | 264° |
| 2026-04-21 18:43 | 24.87319 | 42.26173 | 37986 ft | 383 kts | 265° |
| 2026-04-21 18:43 | 24.86628 | 42.20388 | 37988 ft | 383 kts | 265° |
| 2026-04-21 18:44 | 24.85932 | 42.14576 | 37986 ft | 382 kts | 265° |
| 2026-04-21 18:44 | 24.85237 | 42.08782 | 37988 ft | 381 kts | 264° |
| 2026-04-21 18:45 | 24.84538 | 42.02964 | 37987 ft | 381 kts | 265° |
| 2026-04-21 18:45 | 24.83842 | 41.97184 | 37990 ft | 381 kts | 264° |
| 2026-04-21 18:46 | 24.83143 | 41.91402 | 37993 ft | 381 kts | 264° |
| 2026-04-21 18:46 | 24.82457 | 41.85756 | 37975 ft | 369 kts | 265° |
| 2026-04-21 18:47 | 24.81775 | 41.80148 | 37499 ft | 365 kts | 264° |
| 2026-04-21 18:47 | 24.81443 | 41.77423 | 37037 ft | 358 kts | 264° |
| 2026-04-21 18:47 | 24.81113 | 41.74721 | 36560 ft | 348 kts | 264° |
| 2026-04-21 18:47 | 24.80796 | 41.72133 | 36154 ft | 335 kts | 264° |
| 2026-04-21 18:48 | 24.80491 | 41.69645 | 35718 ft | 328 kts | 264° |
| 2026-04-21 18:48 | 24.80184 | 41.67131 | 35341 ft | 330 kts | 264° |
| 2026-04-21 18:48 | 24.79879 | 41.64637 | 34861 ft | 333 kts | 264° |
| 2026-04-21 18:48 | 24.79568 | 41.62102 | 34432 ft | 331 kts | 263° |
| 2026-04-21 18:49 | 24.79262 | 41.59614 | 33987 ft | 333 kts | 263° |
| 2026-04-21 18:49 | 24.78949 | 41.57072 | 33550 ft | 335 kts | 263° |
| 2026-04-21 18:49 | 24.78740 | 41.55372 | 33248 ft | 335 kts | 263° |
| 2026-04-21 18:49 | 24.78325 | 41.52002 | 32690 ft | 333 kts | 262° |
| 2026-04-21 18:50 | 24.78015 | 41.49496 | 32268 ft | 332 kts | 263° |
| 2026-04-21 18:50 | 24.77702 | 41.46972 | 31840 ft | 330 kts | 263° |
| 2026-04-21 18:50 | 24.77393 | 41.44479 | 31414 ft | 329 kts | 263° |
| 2026-04-21 18:50 | 24.77085 | 41.41993 | 30981 ft | 327 kts | 263° |
| 2026-04-21 18:51 | 24.76778 | 41.39521 | 30549 ft | 326 kts | 262° |
| 2026-04-21 18:51 | 24.76473 | 41.37072 | 30125 ft | 326 kts | 262° |
| 2026-04-21 18:51 | 24.76165 | 41.34600 | 29694 ft | 325 kts | 262° |
| 2026-04-21 18:51 | 24.75858 | 41.32144 | 29301 ft | 323 kts | 262° |
| 2026-04-21 18:52 | 24.75552 | 41.29695 | 28902 ft | 323 kts | 262° |
| 2026-04-21 18:52 | 24.75246 | 41.27249 | 28497 ft | 322 kts | 262° |
| 2026-04-21 18:52 | 24.74942 | 41.24828 | 28098 ft | 321 kts | 262° |
| 2026-04-21 18:52 | 24.74637 | 41.22400 | 27700 ft | 319 kts | 262° |
| 2026-04-21 18:53 | 24.74332 | 41.19972 | 27295 ft | 318 kts | 261° |
| 2026-04-21 18:53 | 24.74031 | 41.17577 | 26901 ft | 317 kts | 261° |
| 2026-04-21 18:53 | 24.73729 | 41.15182 | 26507 ft | 315 kts | 261° |
| 2026-04-21 18:53 | 24.73427 | 41.12787 | 26107 ft | 315 kts | 262° |
| 2026-04-21 18:54 | 24.73126 | 41.10409 | 25711 ft | 313 kts | 262° |
| 2026-04-21 18:54 | 24.72826 | 41.08039 | 25316 ft | 312 kts | 262° |
| 2026-04-21 18:54 | 24.72526 | 41.05666 | 24844 ft | 313 kts | 261° |
| 2026-04-21 18:54 | 24.72227 | 41.03308 | 24322 ft | 312 kts | 262° |
| 2026-04-21 18:55 | 24.71929 | 41.00956 | 23808 ft | 311 kts | 261° |
| 2026-04-21 18:55 | 24.71629 | 40.98594 | 23302 ft | 310 kts | 261° |
| 2026-04-21 18:55 | 24.71333 | 40.96274 | 22802 ft | 308 kts | 262° |
| 2026-04-21 18:55 | 24.71036 | 40.93937 | 22339 ft | 304 kts | 262° |
| 2026-04-21 18:56 | 24.70748 | 40.91680 | 21941 ft | 299 kts | 261° |
| 2026-04-21 18:56 | 24.70455 | 40.89393 | 21534 ft | 301 kts | 262° |
| 2026-04-21 18:56 | 24.70163 | 40.87111 | 21134 ft | 301 kts | 261° |
| 2026-04-21 18:56 | 24.69872 | 40.84839 | 20735 ft | 300 kts | 261° |
| 2026-04-21 18:57 | 24.69581 | 40.82563 | 20330 ft | 298 kts | 261° |
| 2026-04-21 18:57 | 24.69293 | 40.80320 | 19931 ft | 297 kts | 261° |
| 2026-04-21 18:57 | 24.69002 | 40.78056 | 19527 ft | 297 kts | 261° |
| 2026-04-21 18:57 | 24.68713 | 40.75816 | 19127 ft | 295 kts | 262° |
| 2026-04-21 18:58 | 24.68428 | 40.73602 | 18733 ft | 294 kts | 261° |
| 2026-04-21 18:58 | 24.68141 | 40.71372 | 18333 ft | 293 kts | 261° |
| 2026-04-21 18:58 | 24.67854 | 40.69155 | 18046 ft | 290 kts | 261° |
| 2026-04-21 18:58 | 24.67572 | 40.66973 | 18001 ft | 290 kts | 261° |
| 2026-04-21 18:59 | 24.67287 | 40.64770 | 17992 ft | 291 kts | 261° |
| 2026-04-21 18:59 | 24.67000 | 40.62555 | 17995 ft | 291 kts | 261° |
| 2026-04-21 18:59 | 24.66713 | 40.60344 | 17817 ft | 296 kts | 261° |
| 2026-04-21 18:59 | 24.66304 | 40.58139 | 17383 ft | 294 kts | 249° |
| 2026-04-21 19:00 | 24.65233 | 40.56228 | 16930 ft | 292 kts | 236° |
| 2026-04-21 19:00 | 24.64025 | 40.54427 | 16499 ft | 289 kts | 236° |
| 2026-04-21 19:00 | 24.62842 | 40.52640 | 16065 ft | 286 kts | 236° |
| 2026-04-21 19:00 | 24.61680 | 40.50888 | 15639 ft | 284 kts | 236° |
| 2026-04-21 19:01 | 24.60522 | 40.49141 | 15212 ft | 284 kts | 236° |
| 2026-04-21 19:01 | 24.59345 | 40.47367 | 14780 ft | 284 kts | 236° |
| 2026-04-21 19:01 | 24.58186 | 40.45619 | 14359 ft | 283 kts | 236° |
| 2026-04-21 19:01 | 24.57026 | 40.43871 | 13941 ft | 282 kts | 236° |
| 2026-04-21 19:02 | 24.55877 | 40.42140 | 13525 ft | 282 kts | 236° |
| 2026-04-21 19:02 | 24.54715 | 40.40390 | 13109 ft | 281 kts | 236° |
| 2026-04-21 19:02 | 24.53558 | 40.38649 | 12696 ft | 280 kts | 236° |
| 2026-04-21 19:02 | 24.52424 | 40.36941 | 12290 ft | 279 kts | 235° |
| 2026-04-21 19:03 | 24.51279 | 40.35218 | 11883 ft | 279 kts | 235° |
| 2026-04-21 19:03 | 24.50125 | 40.33482 | 11482 ft | 277 kts | 235° |
| 2026-04-21 19:03 | 24.48993 | 40.31779 | 11091 ft | 277 kts | 235° |
| 2026-04-21 19:03 | 24.47857 | 40.30072 | 10698 ft | 277 kts | 234° |
| 2026-04-21 19:04 | 24.46717 | 40.28358 | 10312 ft | 277 kts | 234° |
| 2026-04-21 19:04 | 24.45577 | 40.26645 | 10110 ft | 275 kts | 234° |
| 2026-04-21 19:04 | 24.44440 | 40.24937 | 10086 ft | 277 kts | 234° |
| 2026-04-21 19:04 | 24.43298 | 40.23224 | 10086 ft | 277 kts | 234° |
| 2026-04-21 19:05 | 24.42152 | 40.21503 | 10041 ft | 279 kts | 234° |
| 2026-04-21 19:05 | 24.41008 | 40.19788 | 9969 ft | 279 kts | 234° |
| 2026-04-21 19:05 | 24.39853 | 40.18055 | 9867 ft | 279 kts | 234° |
| 2026-04-21 19:05 | 24.38700 | 40.16327 | 9744 ft | 279 kts | 234° |
| 2026-04-21 19:06 | 24.37548 | 40.14600 | 9619 ft | 278 kts | 234° |
| 2026-04-21 19:06 | 24.36416 | 40.12904 | 9497 ft | 278 kts | 234° |
| 2026-04-21 19:06 | 24.35260 | 40.11172 | 9371 ft | 278 kts | 234° |
| 2026-04-21 19:06 | 24.34121 | 40.09467 | 9249 ft | 278 kts | 234° |
| 2026-04-21 19:07 | 24.32966 | 40.07739 | 9124 ft | 277 kts | 234° |
| 2026-04-21 19:07 | 24.31826 | 40.06032 | 9002 ft | 277 kts | 234° |
| 2026-04-21 19:07 | 24.30679 | 40.04316 | 8878 ft | 277 kts | 234° |
| 2026-04-21 19:07 | 24.29528 | 40.02597 | 8688 ft | 278 kts | 234° |
| 2026-04-21 19:08 | 24.28452 | 40.00988 | 8455 ft | 278 kts | 234° |
| 2026-04-21 19:08 | 24.27304 | 39.99273 | 8209 ft | 278 kts | 234° |
| 2026-04-21 19:08 | 24.26159 | 39.97563 | 7956 ft | 278 kts | 234° |
| 2026-04-21 19:08 | 24.25011 | 39.95850 | 7710 ft | 278 kts | 235° |
| 2026-04-21 19:09 | 24.23852 | 39.94120 | 7462 ft | 278 kts | 235° |
| 2026-04-21 19:09 | 24.22719 | 39.92429 | 7208 ft | 273 kts | 235° |
| 2026-04-21 19:09 | 24.21629 | 39.90805 | 7091 ft | 252 kts | 235° |
| 2026-04-21 19:09 | 24.20708 | 39.89265 | 7095 ft | 228 kts | 249° |
| 2026-04-21 19:10 | 24.20302 | 39.87624 | 6796 ft | 226 kts | 261° |
| 2026-04-21 19:10 | 24.20012 | 39.85929 | 6531 ft | 222 kts | 260° |
| 2026-04-21 19:10 | 24.19727 | 39.84316 | 6393 ft | 213 kts | 261° |
| 2026-04-21 19:10 | 24.19446 | 39.82721 | 6399 ft | 211 kts | 261° |
| 2026-04-21 19:11 | 24.19199 | 39.81128 | 6390 ft | 210 kts | 268° |
| 2026-04-21 19:11 | 24.19467 | 39.79610 | 6334 ft | 199 kts | 297° |
| 2026-04-21 19:11 | 24.20353 | 39.78489 | 6084 ft | 196 kts | 327° |
| 2026-04-21 19:11 | 24.21652 | 39.77947 | 6095 ft | 198 kts | 347° |
| 2026-04-21 19:12 | 24.22993 | 39.77669 | 6086 ft | 195 kts | 349° |
| 2026-04-21 19:12 | 24.24347 | 39.77387 | 6081 ft | 195 kts | 349° |
| 2026-04-21 19:12 | 24.25675 | 39.77108 | 6080 ft | 195 kts | 349° |
| 2026-04-21 19:12 | 24.27024 | 39.76824 | 6076 ft | 194 kts | 348° |
| 2026-04-21 19:13 | 24.28362 | 39.76543 | 6074 ft | 194 kts | 348° |
| 2026-04-21 19:13 | 24.29692 | 39.76263 | 6068 ft | 195 kts | 348° |
| 2026-04-21 19:13 | 24.31032 | 39.75979 | 6063 ft | 195 kts | 348° |
| 2026-04-21 19:13 | 24.32375 | 39.75693 | 6065 ft | 195 kts | 348° |
| 2026-04-21 19:14 | 24.33724 | 39.75405 | 5882 ft | 198 kts | 349° |
| 2026-04-21 19:14 | 24.35089 | 39.75114 | 5602 ft | 196 kts | 349° |
| 2026-04-21 19:14 | 24.36404 | 39.74838 | 5323 ft | 190 kts | 349° |
| 2026-04-21 19:14 | 24.37698 | 39.74564 | 5074 ft | 182 kts | 349° |
| 2026-04-21 19:15 | 24.38905 | 39.74308 | 4842 ft | 174 kts | 349° |
| 2026-04-21 19:15 | 24.40061 | 39.74064 | 4595 ft | 158 kts | 349° |
| 2026-04-21 19:15 | 24.41083 | 39.73848 | 4434 ft | 142 kts | 349° |
| 2026-04-21 19:15 | 24.42035 | 39.73646 | 4272 ft | 138 kts | 348° |
| 2026-04-21 19:16 | 24.42987 | 39.73444 | 4108 ft | 135 kts | 349° |
| 2026-04-21 19:16 | 24.43914 | 39.73247 | 3936 ft | 137 kts | 348° |
| 2026-04-21 19:16 | 24.44858 | 39.73047 | 3743 ft | 136 kts | 349° |
| 2026-04-21 19:16 | 24.45793 | 39.72848 | 3571 ft | 136 kts | 349° |
| 2026-04-21 19:17 | 24.47674 | 39.72450 | 3225 ft | 136 kts | 349° |
| 2026-04-21 19:17 | 24.48616 | 39.72250 | 3051 ft | 136 kts | 349° |
| 2026-04-21 19:17 | 24.49547 | 39.72052 | 2881 ft | 136 kts | 349° |
| 2026-04-21 19:18 | 24.50478 | 39.71852 | 2701 ft | 143 kts | 348° |
| 2026-04-21 19:18 | 24.51576 | 39.71610 | 2669 ft | 157 kts | 349° |
| 2026-04-21 19:18 | 24.52555 | 39.71402 | 2422 ft | 133 kts | 351° |
| 2026-04-21 19:18 | 24.53473 | 39.71217 | 2194 ft | 142 kts | 349° |
| 2026-04-21 19:19 | 24.54394 | 39.71019 | 2077 ft | 119 kts | 349° |
| 2026-04-21 19:19 | 24.55044 | 39.70882 | 2099 ft | 70 kts | 350° |
| 2026-04-21 19:19 | 24.55457 | 39.70795 | 2119 ft | 53 kts | 349° |
| 2026-04-21 19:19 | 24.55799 | 39.70721 | 2130 ft | 47 kts | 351° |
| 2026-04-21 19:20 | 24.56046 | 39.70662 | 2133 ft | 26 kts | 339° |
| 2026-04-21 19:20 | 24.56199 | 39.70569 | 2131 ft | 19 kts | 319° |
| 2026-04-21 19:20 | 24.56284 | 39.70488 | 2130 ft | 5 kts | 319° |
| 2026-04-21 19:20 | 24.56328 | 39.70444 | 2129 ft | 14 kts | 311° |
| 2026-04-21 19:21 | 24.56341 | 39.70345 | 2128 ft | 5 kts | 275° |
| 2026-04-21 19:21 | 24.56328 | 39.70290 | 2127 ft | 9 kts | 213° |
| 2026-04-21 19:21 | 24.56270 | 39.70284 | 2127 ft | 10 kts | 183° |
| 2026-04-21 19:21 | 24.56185 | 39.70277 | 2126 ft | 14 kts | 184° |
| 2026-04-21 19:22 | 24.56066 | 39.70269 | 2123 ft | 19 kts | 182° |
| 2026-04-21 19:22 | 24.55928 | 39.70260 | 2120 ft | 21 kts | 184° |
| 2026-04-21 19:22 | 24.55767 | 39.70247 | 2120 ft | 24 kts | 184° |
| 2026-04-21 19:22 | 24.55598 | 39.70234 | 2116 ft | 22 kts | 184° |
| 2026-04-21 19:23 | 24.55427 | 39.70222 | 2111 ft | 27 kts | 184° |
| 2026-04-21 19:23 | 24.55234 | 39.70209 | 2107 ft | 26 kts | 183° |
| 2026-04-21 19:23 | 24.55089 | 39.70198 | 2103 ft | 23 kts | 184° |
| 2026-04-21 19:23 | 24.54923 | 39.70186 | 2098 ft | 24 kts | 183° |
| 2026-04-21 19:24 | 24.54797 | 39.70177 | 2095 ft | 9 kts | 186° |
| 2026-04-21 19:24 | 24.54752 | 39.70150 | 2094 ft | 9 kts | 232° |
| 2026-04-21 19:24 | 24.54717 | 39.70080 | 2094 ft | 10 kts | 242° |
| 2026-04-21 19:24 | 24.54681 | 39.70071 | 2093 ft | 8 kts | 149° |
| 2026-04-21 19:25 | 24.54631 | 39.70076 | 2091 ft | 9 kts | 236° |
| 2026-04-21 19:25 | 24.54610 | 39.70015 | 2091 ft | 4 kts | 242° |
| 2026-04-21 19:25 | 24.54601 | 39.69997 | 2091 ft | 0 kts | 241° |